Aviation Digital Data Service (ADDS)

Output produced by METARs form (1628 UTC 19 October 2017)
found at http://aviationweather.gov/adds/metars/
 
KAUG 191122Z 1912/2012 19004KT P6SM SKC 
     FM191500 20009G18KT P6SM FEW250 
     FM200000 24005KT P6SM SCT250